Time;durP1;ratioP1;P1;durP2;ratioP2;P2;SDS_P1;SDS_P2;PMS_P1;PMS_P2;Temp;Humidity;BMP_temperature;BMP_pressure;BME280_temperature;BME280_humidity;BME280_pressure;Samples;Min_cycle;Max_cycle;Signal;HPM_P1;HPM_P2
2021/12/30 00:00:49;;;;;;;31.37;28.50;;;;;;;;;;4997328;28;20461;-87
2021/12/30 00:03:17;;;;;;;31.20;27.83;;;;;;;;;;4996682;28;20800;-86
2021/12/30 00:05:44;;;;;;;33.83;30.23;;;;;;;;;;4998414;28;20484;-85
2021/12/30 00:08:36;;;;;;;127.30;114.40;;;;;;;;;;5012067;28;20478;-86
2021/12/30 00:29:17;;;;;;;32.67;29.07;;;;;;;;;;4979121;29;20482;-87
2021/12/30 01:14:14;;;;;;;25.70;22.73;;;;;;;;;;5014738;28;20412;-87
2021/12/30 01:42:38;;;;;;;27.20;21.80;;;;;;;;;;4929779;29;20428;-88
2021/12/30 01:45:28;;;;;;;30.60;23.27;;;;;;;;;;4927635;29;20457;-87
2021/12/30 02:11:05;;;;;;;29.00;24.47;;;;;;;;;;5096511;23;20486;-88
2021/12/30 02:23:13;;;;;;;32.40;23.70;;;;;;;;;;4997170;28;20450;-87
2021/12/30 03:07:17;;;;;;;28.73;25.67;;;;;;;;;;4935092;29;20501;-88
2021/12/30 03:13:16;;;;;;;37.37;26.00;;;;;;;;;;4933370;29;20432;-88
2021/12/30 03:16:03;;;;;;;32.53;26.57;;;;;;;;;;4904802;29;20428;-88
2021/12/30 03:36:19;;;;;;;41.33;29.70;;;;;;;;;;5927647;23;20458;-88
2021/12/30 03:50:13;;;;;;;37.23;31.10;;;;;;;;;;5079894;23;20448;-87
2021/12/30 04:35:56;;;;;;;255.43;217.93;;;;;;;;;;4995441;28;20305;-87
2021/12/30 04:47:00;;;;;;;41.00;33.17;;;;;;;;;;5015833;28;20495;-87
2021/12/30 04:49:52;;;;;;;285.90;240.47;;;;;;;;;;5015565;28;20445;-87
2021/12/30 05:01:11;;;;;;;37.37;31.10;;;;;;;;;;5016571;28;20236;-87
2021/12/30 05:04:01;;;;;;;42.20;31.60;;;;;;;;;;5001477;28;20594;-87
2021/12/30 05:32:14;;;;;;;47.80;32.93;;;;;;;;;;4958429;29;20419;-88
2021/12/30 05:35:00;;;;;;;36.70;32.77;;;;;;;;;;4958341;29;20452;-88
2021/12/30 05:43:53;;;;;;;42.10;33.00;;;;;;;;;;4957632;29;20497;-89
2021/12/30 05:51:54;;;;;;;39.33;32.30;;;;;;;;;;4996375;28;20638;-87
2021/12/30 05:59:54;;;;;;;34.17;30.67;;;;;;;;;;5000243;28;20509;-88
2021/12/30 06:05:46;;;;;;;33.83;30.40;;;;;;;;;;5012998;28;20488;-88
2021/12/30 06:08:55;;;;;;;39.53;31.43;;;;;;;;;;5013129;28;20469;-87
2021/12/30 06:21:15;;;;;;;45.53;36.93;;;;;;;;;;4956954;29;21000;-88
2021/12/30 06:23:47;;;;;;;45.37;33.83;;;;;;;;;;4941831;29;20458;-87
2021/12/30 06:26:14;;;;;;;35.87;32.13;;;;;;;;;;4958310;29;20508;-86
2021/12/30 06:45:22;;;;;;;43.67;35.17;;;;;;;;;;4961240;29;20414;-87
2021/12/30 06:55:31;;;;;;;46.00;33.80;;;;;;;;;;4955466;29;20483;-88
2021/12/30 06:57:59;;;;;;;42.50;33.03;;;;;;;;;;4956599;29;20470;-87
2021/12/30 07:00:27;;;;;;;38.30;33.77;;;;;;;;;;4956672;29;20562;-88
2021/12/30 07:02:54;;;;;;;47.10;36.83;;;;;;;;;;4956066;29;20410;-87
2021/12/30 07:05:21;;;;;;;46.23;35.50;;;;;;;;;;4938574;29;20455;-88
2021/12/30 07:07:49;;;;;;;41.90;37.00;;;;;;;;;;4956183;29;20890;-88
2021/12/30 07:10:16;;;;;;;48.77;36.67;;;;;;;;;;4956348;29;20435;-87
2021/12/30 07:12:45;;;;;;;44.33;36.30;;;;;;;;;;4939474;29;20506;-88
2021/12/30 07:15:12;;;;;;;36.67;32.77;;;;;;;;;;4956453;29;20421;-88
2021/12/30 07:17:40;;;;;;;41.03;35.57;;;;;;;;;;4956723;29;20421;-88
2021/12/30 07:20:08;;;;;;;46.03;35.90;;;;;;;;;;4955492;28;20425;-88
2021/12/30 07:22:36;;;;;;;41.97;37.30;;;;;;;;;;4956400;29;20443;-87
2021/12/30 07:25:04;;;;;;;51.10;36.83;;;;;;;;;;4956079;29;20422;-88
2021/12/30 07:27:32;;;;;;;46.27;36.13;;;;;;;;;;4956268;29;20490;-88
2021/12/30 07:30:01;;;;;;;51.80;38.30;;;;;;;;;;4956362;29;20418;-87
2021/12/30 07:32:29;;;;;;;45.80;38.60;;;;;;;;;;4955792;29;20464;-87
2021/12/30 07:34:56;;;;;;;46.33;37.80;;;;;;;;;;4956114;29;20506;-87
2021/12/30 07:37:24;;;;;;;40.10;34.90;;;;;;;;;;4955759;29;20428;-85
2021/12/30 07:39:51;;;;;;;38.67;32.90;;;;;;;;;;4956239;29;20417;-88
2021/12/30 07:42:18;;;;;;;37.07;33.10;;;;;;;;;;4955963;29;20485;-88
2021/12/30 07:44:46;;;;;;;42.60;35.00;;;;;;;;;;4955967;29;20422;-88
2021/12/30 07:47:14;;;;;;;37.70;33.90;;;;;;;;;;4955790;29;20473;-88
2021/12/30 07:49:42;;;;;;;42.10;36.17;;;;;;;;;;4956728;29;20440;-92
2021/12/30 07:52:09;;;;;;;33.87;30.30;;;;;;;;;;4957520;29;20437;-93
2021/12/30 07:54:37;;;;;;;40.17;34.13;;;;;;;;;;4974107;28;20465;-96
2021/12/30 07:57:05;;;;;;;36.90;33.10;;;;;;;;;;4981215;28;20437;-96
2021/12/30 07:59:32;;;;;;;38.57;34.70;;;;;;;;;;4962968;28;20464;-96
2021/12/30 08:02:00;;;;;;;28.53;26.50;;;;;;;;;;4966165;28;20445;-91
2021/12/30 08:04:29;;;;;;;36.63;33.00;;;;;;;;;;4982660;28;20442;-95
2021/12/30 08:06:56;;;;;;;29.00;26.90;;;;;;;;;;4980472;28;20484;-96
2021/12/30 08:09:24;;;;;;;32.53;29.70;;;;;;;;;;4986066;28;20417;-96
2021/12/30 08:11:51;;;;;;;34.43;31.60;;;;;;;;;;4988998;28;20442;-96
2021/12/30 08:14:18;;;;;;;29.93;27.57;;;;;;;;;;4970873;28;20466;-96
2021/12/30 08:16:46;;;;;;;31.57;29.23;;;;;;;;;;4989088;28;20469;-96
2021/12/30 08:19:13;;;;;;;30.10;27.67;;;;;;;;;;4990902;28;20429;-96
2021/12/30 08:21:42;;;;;;;32.53;29.63;;;;;;;;;;4970814;28;20416;-96
2021/12/30 08:24:10;;;;;;;32.30;29.47;;;;;;;;;;4986080;28;20441;-90
2021/12/30 08:26:37;;;;;;;28.57;26.57;;;;;;;;;;4975218;28;20440;-89
2021/12/30 08:29:05;;;;;;;27.93;26.07;;;;;;;;;;4975062;28;20532;-90
2021/12/30 08:31:32;;;;;;;28.20;26.10;;;;;;;;;;4976766;28;20433;-92
2021/12/30 08:33:59;;;;;;;24.90;23.63;;;;;;;;;;4979821;28;20446;-92
2021/12/30 08:36:27;;;;;;;27.73;25.73;;;;;;;;;;4978983;28;20465;-88
2021/12/30 08:38:56;;;;;;;27.43;25.53;;;;;;;;;;4962253;28;20865;-94
2021/12/30 08:41:23;;;;;;;29.10;27.00;;;;;;;;;;4979870;28;20491;-94
2021/12/30 08:43:50;;;;;;;28.23;26.07;;;;;;;;;;4978728;28;20878;-88
2021/12/30 08:46:18;;;;;;;29.90;27.80;;;;;;;;;;4978775;28;20455;-89
2021/12/30 08:48:45;;;;;;;29.73;27.73;;;;;;;;;;4978776;28;20464;-88
2021/12/30 08:51:13;;;;;;;30.00;27.80;;;;;;;;;;4978326;28;20446;-88
2021/12/30 08:53:41;;;;;;;28.50;26.60;;;;;;;;;;4977996;28;20493;-88
2021/12/30 08:56:11;;;;;;;28.90;26.90;;;;;;;;;;4979912;28;20533;-86
2021/12/30 08:58:39;;;;;;;27.40;25.70;;;;;;;;;;4977909;28;21231;-89
2021/12/30 09:01:06;;;;;;;27.47;25.57;;;;;;;;;;4961522;28;20413;-89
2021/12/30 09:03:34;;;;;;;27.27;25.67;;;;;;;;;;4977656;28;20904;-87
2021/12/30 09:06:01;;;;;;;28.47;26.53;;;;;;;;;;4978020;28;20421;-91
2021/12/30 09:08:29;;;;;;;29.13;26.53;;;;;;;;;;4961113;28;20497;-84
2021/12/30 09:10:56;;;;;;;31.07;28.87;;;;;;;;;;4976688;28;20445;-84
2021/12/30 09:13:26;;;;;;;39.40;36.70;;;;;;;;;;4977063;28;20428;-84
2021/12/30 09:15:55;;;;;;;202.17;172.23;;;;;;;;;;4959779;28;20446;-84
2021/12/30 09:18:24;;;;;;;266.67;211.60;;;;;;;;;;4959648;28;20811;-84
2021/12/30 09:20:51;;;;;;;262.97;196.13;;;;;;;;;;4960168;28;20497;-86
2021/12/30 09:23:19;;;;;;;36.63;33.80;;;;;;;;;;4977591;28;20778;-86
2021/12/30 09:25:46;;;;;;;35.07;32.57;;;;;;;;;;4977607;28;20480;-86
2021/12/30 09:28:14;;;;;;;31.00;28.60;;;;;;;;;;4977415;28;20494;-84
2021/12/30 09:30:45;;;;;;;41.33;38.23;;;;;;;;;;4978093;28;20817;-90
2021/12/30 09:33:15;;;;;;;43.13;39.53;;;;;;;;;;4960363;28;20876;-87
2021/12/30 09:35:44;;;;;;;59.20;53.37;;;;;;;;;;4977259;28;20444;-87
2021/12/30 09:38:11;;;;;;;34.80;32.53;;;;;;;;;;4977643;28;20442;-86
2021/12/30 09:40:39;;;;;;;35.20;32.60;;;;;;;;;;4977589;28;20481;-86
2021/12/30 09:43:09;;;;;;;42.97;39.30;;;;;;;;;;4975963;28;20432;-87
2021/12/30 09:45:37;;;;;;;38.40;35.70;;;;;;;;;;4960222;28;20894;-87
2021/12/30 09:48:08;;;;;;;43.83;40.23;;;;;;;;;;4977235;28;20825;-86
2021/12/30 09:50:37;;;;;;;45.37;41.77;;;;;;;;;;4977024;28;20413;-86
2021/12/30 09:53:04;;;;;;;42.40;39.30;;;;;;;;;;4976994;28;20910;-86
2021/12/30 09:55:32;;;;;;;41.60;38.50;;;;;;;;;;4977514;28;20549;-84
2021/12/30 09:58:00;;;;;;;42.30;38.97;;;;;;;;;;4977094;28;20420;-87
2021/12/30 10:00:27;;;;;;;37.40;34.70;;;;;;;;;;4976931;28;20474;-85
2021/12/30 10:02:55;;;;;;;39.33;36.53;;;;;;;;;;4977022;28;20413;-86
2021/12/30 10:05:25;;;;;;;37.63;34.93;;;;;;;;;;4976687;28;20434;-87
2021/12/30 10:08:08;;;;;;;32.07;29.80;;;;;;;;;;4976462;28;20962;-86
2021/12/30 10:10:38;;;;;;;32.27;30.13;;;;;;;;;;4976826;28;20424;-86
2021/12/30 10:13:15;;;;;;;33.50;31.33;;;;;;;;;;4976982;28;20410;-87
2021/12/30 10:15:43;;;;;;;35.97;33.07;;;;;;;;;;4977216;28;20438;-89
2021/12/30 10:18:10;;;;;;;28.97;27.17;;;;;;;;;;4977140;28;20436;-88
2021/12/30 10:20:41;;;;;;;39.40;36.10;;;;;;;;;;4977121;28;20911;-93
2021/12/30 10:23:12;;;;;;;32.97;30.73;;;;;;;;;;4976935;28;20417;-90
2021/12/30 10:25:41;;;;;;;30.83;28.83;;;;;;;;;;4976853;28;20450;-92
2021/12/30 10:28:25;;;;;;;32.83;30.73;;;;;;;;;;4976385;28;20507;-91
2021/12/30 10:30:55;;;;;;;35.10;32.57;;;;;;;;;;4976576;28;20464;-94
2021/12/30 10:33:24;;;;;;;36.73;34.27;;;;;;;;;;4976456;28;20526;-84
2021/12/30 10:35:53;;;;;;;32.03;29.93;;;;;;;;;;4976463;28;20438;-91
2021/12/30 10:38:21;;;;;;;30.23;28.23;;;;;;;;;;4976525;28;20439;-92
2021/12/30 10:40:49;;;;;;;35.70;33.00;;;;;;;;;;4976540;28;20421;-92
2021/12/30 10:43:23;;;;;;;30.50;28.70;;;;;;;;;;4976613;28;20440;-90
2021/12/30 10:46:08;;;;;;;36.50;33.93;;;;;;;;;;4975962;28;20424;-92
2021/12/30 10:48:36;;;;;;;32.03;30.00;;;;;;;;;;4975832;28;20523;-92
2021/12/30 10:51:12;;;;;;;31.57;29.40;;;;;;;;;;4975916;28;20488;-91
2021/12/30 10:53:39;;;;;;;36.33;33.60;;;;;;;;;;4975613;28;20507;-92
2021/12/30 10:56:23;;;;;;;35.53;33.20;;;;;;;;;;4976306;28;20835;-91
2021/12/30 10:58:51;;;;;;;28.50;26.73;;;;;;;;;;4976221;28;20475;-90
2021/12/30 11:01:19;;;;;;;36.17;33.60;;;;;;;;;;4959101;28;20409;-90
2021/12/30 11:03:57;;;;;;;36.67;34.10;;;;;;;;;;4958766;28;20450;-90
2021/12/30 11:06:26;;;;;;;32.33;30.13;;;;;;;;;;4975994;28;20424;-90
2021/12/30 11:09:05;;;;;;;34.33;31.73;;;;;;;;;;4975527;28;20478;-91
2021/12/30 11:11:32;;;;;;;31.83;29.13;;;;;;;;;;4975860;28;20421;-89
2021/12/30 11:14:01;;;;;;;31.97;29.87;;;;;;;;;;4975930;28;20439;-90
2021/12/30 11:16:28;;;;;;;28.50;26.70;;;;;;;;;;4975649;28;20409;-91
2021/12/30 11:18:57;;;;;;;29.17;27.23;;;;;;;;;;4976043;28;20749;-90
2021/12/30 11:21:39;;;;;;;30.80;28.90;;;;;;;;;;4975928;28;20436;-87
2021/12/30 11:24:07;;;;;;;30.17;28.20;;;;;;;;;;4975051;28;20432;-90
2021/12/30 11:26:35;;;;;;;27.40;25.70;;;;;;;;;;4958762;28;20438;-89
2021/12/30 11:29:02;;;;;;;30.10;28.30;;;;;;;;;;4975698;28;20493;-90
2021/12/30 11:31:30;;;;;;;28.13;26.23;;;;;;;;;;4975802;28;20428;-89
2021/12/30 11:33:58;;;;;;;27.33;25.53;;;;;;;;;;4988165;28;20421;-96
2021/12/30 11:36:28;;;;;;;27.50;25.70;;;;;;;;;;4966302;28;20480;-94
2021/12/30 11:39:13;;;;;;;27.87;26.17;;;;;;;;;;4996022;28;20446;-96
2021/12/30 11:41:41;;;;;;;28.53;26.43;;;;;;;;;;5285239;23;20492;-89
2021/12/30 11:44:09;;;;;;;25.87;24.37;;;;;;;;;;4995036;28;20427;-90
2021/12/30 11:46:40;;;;;;;27.40;25.73;;;;;;;;;;4994986;28;20424;-92
2021/12/30 11:49:08;;;;;;;24.33;22.93;;;;;;;;;;4995011;28;20464;-93
2021/12/30 11:51:42;;;;;;;26.00;24.30;;;;;;;;;;4994857;28;20437;-90
2021/12/30 11:54:28;;;;;;;27.00;25.30;;;;;;;;;;4994552;28;20408;-85
2021/12/30 11:57:20;;;;;;;24.27;22.77;;;;;;;;;;4994012;28;20453;-86
2021/12/30 11:59:48;;;;;;;26.27;24.67;;;;;;;;;;4974653;28;20540;-85
2021/12/30 12:02:32;;;;;;;21.70;20.50;;;;;;;;;;4994389;28;20443;-85
2021/12/30 12:04:59;;;;;;;21.80;20.60;;;;;;;;;;4994204;28;20461;-85
2021/12/30 12:07:27;;;;;;;26.10;24.60;;;;;;;;;;4997499;28;20414;-86
2021/12/30 12:09:54;;;;;;;23.67;22.27;;;;;;;;;;4997941;28;20483;-84
2021/12/30 12:12:34;;;;;;;24.63;23.23;;;;;;;;;;4981112;28;20474;-86
2021/12/30 12:15:05;;;;;;;23.63;22.23;;;;;;;;;;4998871;28;20834;-91
2021/12/30 12:17:35;;;;;;;22.10;20.90;;;;;;;;;;4998424;28;20445;-86
2021/12/30 12:20:13;;;;;;;23.60;22.10;;;;;;;;;;4997808;28;20463;-85
2021/12/30 12:22:41;;;;;;;22.00;20.80;;;;;;;;;;4998026;28;20958;-86
2021/12/30 12:25:10;;;;;;;23.33;22.03;;;;;;;;;;4997717;28;20519;-85
2021/12/30 12:27:39;;;;;;;23.73;22.40;;;;;;;;;;4998111;28;20428;-86
2021/12/30 12:30:08;;;;;;;23.43;22.17;;;;;;;;;;4997830;28;20484;-85
2021/12/30 12:32:38;;;;;;;24.17;22.87;;;;;;;;;;4997583;28;20421;-85
2021/12/30 12:35:07;;;;;;;26.10;24.27;;;;;;;;;;4997892;28;20840;-85
2021/12/30 12:37:54;;;;;;;23.33;21.83;;;;;;;;;;4997846;28;20466;-86
2021/12/30 12:40:29;;;;;;;24.33;22.93;;;;;;;;;;4997724;28;20442;-87
2021/12/30 12:42:59;;;;;;;25.73;24.23;;;;;;;;;;4997536;28;20481;-86
2021/12/30 12:45:29;;;;;;;20.97;19.87;;;;;;;;;;4997732;28;20845;-86
2021/12/30 12:48:15;;;;;;;21.03;19.73;;;;;;;;;;4997888;28;20416;-86
2021/12/30 12:50:44;;;;;;;24.33;22.77;;;;;;;;;;4997615;28;20849;-86
2021/12/30 12:53:20;;;;;;;24.07;22.53;;;;;;;;;;4997363;28;20497;-85
2021/12/30 12:55:48;;;;;;;22.53;21.33;;;;;;;;;;4997421;28;20449;-85
2021/12/30 12:58:18;;;;;;;21.80;20.43;;;;;;;;;;4997501;28;20481;-86
2021/12/30 13:00:47;;;;;;;21.63;20.43;;;;;;;;;;4997433;28;20469;-86
2021/12/30 13:03:16;;;;;;;21.20;19.83;;;;;;;;;;4997374;28;20426;-86
2021/12/30 13:05:54;;;;;;;20.80;19.43;;;;;;;;;;4997358;28;20838;-86
2021/12/30 13:08:21;;;;;;;20.50;19.40;;;;;;;;;;4997064;28;20461;-86
2021/12/30 13:10:49;;;;;;;20.83;19.60;;;;;;;;;;4997433;28;20840;-85
2021/12/30 13:13:28;;;;;;;20.47;19.30;;;;;;;;;;4997138;28;20821;-86
2021/12/30 13:15:57;;;;;;;20.30;19.20;;;;;;;;;;4997087;28;20469;-85
2021/12/30 13:18:24;;;;;;;18.47;17.47;;;;;;;;;;4996964;28;20845;-85
2021/12/30 13:20:52;;;;;;;21.33;19.77;;;;;;;;;;4996259;28;20419;-87
2021/12/30 13:23:29;;;;;;;21.27;19.70;;;;;;;;;;4997104;28;20483;-86
2021/12/30 13:26:01;;;;;;;20.03;18.70;;;;;;;;;;4997165;28;20433;-87
2021/12/30 13:28:29;;;;;;;20.53;19.30;;;;;;;;;;4996885;28;20490;-87
2021/12/30 13:31:07;;;;;;;21.20;19.60;;;;;;;;;;4997272;28;20489;-87
2021/12/30 13:33:35;;;;;;;20.83;19.53;;;;;;;;;;4996826;28;20458;-87
2021/12/30 13:36:13;;;;;;;21.97;20.43;;;;;;;;;;4996721;28;20963;-88
2021/12/30 13:38:41;;;;;;;22.33;20.20;;;;;;;;;;4996914;28;20508;-87
2021/12/30 13:41:13;;;;;;;21.90;20.70;;;;;;;;;;4980020;28;20419;-87
2021/12/30 13:43:41;;;;;;;20.97;19.60;;;;;;;;;;4996701;28;20603;-86
2021/12/30 13:46:10;;;;;;;21.93;20.53;;;;;;;;;;4996723;28;20782;-87
2021/12/30 13:48:37;;;;;;;20.67;19.20;;;;;;;;;;4996302;28;20440;-86
2021/12/30 13:51:06;;;;;;;22.60;20.93;;;;;;;;;;4996364;28;20796;-86
2021/12/30 13:53:35;;;;;;;20.03;18.73;;;;;;;;;;4996394;28;20416;-86
2021/12/30 13:56:03;;;;;;;21.57;20.30;;;;;;;;;;4996544;28;20434;-86
2021/12/30 13:58:34;;;;;;;22.40;20.73;;;;;;;;;;4995972;28;20477;-86
2021/12/30 14:01:03;;;;;;;20.03;18.90;;;;;;;;;;4996525;28;20445;-86
2021/12/30 14:03:34;;;;;;;22.77;21.40;;;;;;;;;;4996475;28;20446;-85
2021/12/30 14:06:05;;;;;;;21.50;20.00;;;;;;;;;;4996453;28;20532;-85
2021/12/30 14:08:32;;;;;;;22.10;20.80;;;;;;;;;;4996101;28;20990;-87
2021/12/30 14:11:01;;;;;;;20.70;19.50;;;;;;;;;;4995949;28;20502;-87
2021/12/30 14:13:38;;;;;;;21.57;20.37;;;;;;;;;;4996759;28;20453;-94
2021/12/30 14:16:06;;;;;;;21.97;20.67;;;;;;;;;;4996548;28;20541;-87
2021/12/30 14:18:36;;;;;;;23.63;22.33;;;;;;;;;;4995726;28;20436;-87
2021/12/30 14:21:04;;;;;;;23.30;21.73;;;;;;;;;;4996265;28;20439;-87
2021/12/30 14:23:32;;;;;;;20.40;19.10;;;;;;;;;;4996260;28;20416;-86
2021/12/30 14:26:09;;;;;;;22.57;21.07;;;;;;;;;;4995993;28;20469;-87
2021/12/30 14:28:36;;;;;;;21.77;20.27;;;;;;;;;;4995170;28;20434;-87
2021/12/30 14:31:04;;;;;;;21.57;19.90;;;;;;;;;;4995733;28;20461;-87
2021/12/30 14:33:34;;;;;;;23.23;21.63;;;;;;;;;;4996110;28;20434;-87
2021/12/30 14:36:13;;;;;;;21.97;20.67;;;;;;;;;;4995750;28;20445;-87
2021/12/30 14:38:40;;;;;;;22.63;20.87;;;;;;;;;;4996221;28;20786;-86
2021/12/30 14:41:15;;;;;;;23.10;21.70;;;;;;;;;;4978332;28;20861;-86
2021/12/30 14:44:02;;;;;;;22.90;21.47;;;;;;;;;;4976347;28;20442;-87
2021/12/30 14:46:30;;;;;;;23.00;21.40;;;;;;;;;;4974908;28;20429;-87
2021/12/30 14:48:58;;;;;;;20.53;19.33;;;;;;;;;;4975788;28;20892;-86
2021/12/30 14:51:30;;;;;;;24.27;22.67;;;;;;;;;;4975705;28;20440;-87
2021/12/30 14:53:58;;;;;;;24.80;22.97;;;;;;;;;;4975823;28;20446;-86
2021/12/30 14:56:25;;;;;;;23.40;21.80;;;;;;;;;;4975826;28;20431;-87
2021/12/30 14:58:53;;;;;;;24.20;22.27;;;;;;;;;;4975635;28;20528;-87
2021/12/30 15:01:20;;;;;;;22.13;20.80;;;;;;;;;;4975804;28;20421;-86
2021/12/30 15:03:47;;;;;;;23.20;21.50;;;;;;;;;;4976105;28;20427;-86
2021/12/30 15:06:15;;;;;;;21.57;20.17;;;;;;;;;;4975602;28;20417;-86
2021/12/30 15:08:43;;;;;;;23.47;22.13;;;;;;;;;;4975610;28;20445;-86
2021/12/30 15:11:11;;;;;;;22.40;21.00;;;;;;;;;;4975802;28;20466;-87
2021/12/30 15:13:38;;;;;;;23.10;21.70;;;;;;;;;;4975294;28;20812;-87
2021/12/30 15:16:06;;;;;;;23.73;22.17;;;;;;;;;;4975597;28;20465;-87
2021/12/30 15:18:34;;;;;;;25.63;23.60;;;;;;;;;;4975990;28;20447;-88
2021/12/30 15:21:02;;;;;;;25.70;24.00;;;;;;;;;;4958986;28;20500;-87
2021/12/30 15:23:30;;;;;;;23.87;22.17;;;;;;;;;;4975526;28;20451;-88
2021/12/30 15:25:59;;;;;;;24.97;23.37;;;;;;;;;;4975839;28;20847;-89
2021/12/30 15:28:26;;;;;;;24.83;23.30;;;;;;;;;;4975353;28;20441;-89
2021/12/30 15:30:54;;;;;;;25.07;23.47;;;;;;;;;;4976161;28;20516;-89
2021/12/30 15:33:22;;;;;;;26.13;24.53;;;;;;;;;;4975369;28;20472;-88
2021/12/30 15:35:51;;;;;;;26.30;24.63;;;;;;;;;;4975441;28;20896;-88
2021/12/30 15:38:19;;;;;;;26.03;24.13;;;;;;;;;;4975511;28;20545;-91
2021/12/30 15:40:47;;;;;;;28.40;26.60;;;;;;;;;;4975675;28;20413;-90
2021/12/30 15:43:16;;;;;;;202.07;191.40;;;;;;;;;;4992605;28;20452;-89
2021/12/30 15:45:44;;;;;;;34.83;32.63;;;;;;;;;;4995047;28;20457;-88
2021/12/30 15:48:12;;;;;;;103.30;98.03;;;;;;;;;;4994768;28;20414;-88
2021/12/30 15:50:39;;;;;;;31.70;29.60;;;;;;;;;;4977283;28;20493;-87
2021/12/30 15:53:07;;;;;;;30.27;28.30;;;;;;;;;;4994601;28;20446;-87
2021/12/30 15:55:35;;;;;;;24.43;22.90;;;;;;;;;;4994882;28;20415;-88
2021/12/30 15:58:03;;;;;;;45.10;42.17;;;;;;;;;;4994742;28;20452;-87
2021/12/30 16:00:32;;;;;;;267.63;249.47;;;;;;;;;;4995433;28;20447;-89
2021/12/30 16:03:00;;;;;;;268.40;252.07;;;;;;;;;;4995508;28;20539;-90
2021/12/30 16:05:28;;;;;;;28.13;26.07;;;;;;;;;;4995936;28;20486;-90
2021/12/30 16:07:55;;;;;;;46.43;42.43;;;;;;;;;;4995294;28;20445;-90
2021/12/30 16:10:22;;;;;;;30.73;28.53;;;;;;;;;;4994911;28;20463;-89
2021/12/30 16:12:50;;;;;;;24.83;23.17;;;;;;;;;;4995720;28;20441;-88
2021/12/30 16:15:18;;;;;;;25.63;23.80;;;;;;;;;;4995766;28;20529;-88
2021/12/30 16:17:47;;;;;;;267.13;250.93;;;;;;;;;;4996012;28;20420;-88
2021/12/30 16:20:16;;;;;;;313.03;288.43;;;;;;;;;;4994845;28;20945;-88
2021/12/30 16:22:45;;;;;;;261.73;244.20;;;;;;;;;;4977320;28;20442;-89
2021/12/30 16:25:13;;;;;;;28.37;26.47;;;;;;;;;;4994757;28;20855;-89
2021/12/30 16:27:41;;;;;;;268.70;242.90;;;;;;;;;;4997622;28;20424;-92
2021/12/30 16:30:12;;;;;;;25.00;23.40;;;;;;;;;;4978357;28;20488;-86
2021/12/30 16:32:40;;;;;;;28.50;26.43;;;;;;;;;;4994618;28;20559;-83
2021/12/30 16:35:12;;;;;;;24.63;23.03;;;;;;;;;;4994737;28;20420;-86
2021/12/30 16:37:41;;;;;;;27.80;25.60;;;;;;;;;;4994177;28;20779;-86
2021/12/30 16:40:10;;;;;;;95.60;90.27;;;;;;;;;;4994857;28;20449;-86
2021/12/30 16:42:38;;;;;;;29.70;27.60;;;;;;;;;;4974260;28;20981;-88
2021/12/30 16:45:06;;;;;;;231.87;217.00;;;;;;;;;;4975519;28;20446;-87
2021/12/30 16:47:34;;;;;;;23.87;22.30;;;;;;;;;;4975488;28;20438;-86
2021/12/30 16:50:01;;;;;;;261.47;245.40;;;;;;;;;;4976867;28;20461;-86
2021/12/30 16:52:30;;;;;;;302.83;279.23;;;;;;;;;;4979316;28;20438;-87
2021/12/30 16:54:59;;;;;;;255.03;240.07;;;;;;;;;;4981948;28;20490;-86
2021/12/30 16:57:26;;;;;;;418.13;295.93;;;;;;;;;;4977995;28;21004;-87
2021/12/30 16:59:54;;;;;;;378.00;294.10;;;;;;;;;;4978497;28;20439;-87
2021/12/30 17:02:21;;;;;;;310.33;280.90;;;;;;;;;;4962260;29;20463;-88
2021/12/30 17:04:49;;;;;;;394.87;293.83;;;;;;;;;;4965630;29;20441;-88
2021/12/30 17:07:16;;;;;;;508.63;293.67;;;;;;;;;;4977452;28;20459;-88
2021/12/30 17:09:45;;;;;;;472.92;259.35;;;;;;;;;;4968115;28;20195;-91
2021/12/30 17:12:15;;;;;;;25.70;23.80;;;;;;;;;;4966006;28;20195;-94
2021/12/30 17:14:42;;;;;;;25.20;23.60;;;;;;;;;;4963076;29;20452;-94
2021/12/30 17:17:10;;;;;;;23.50;21.70;;;;;;;;;;4961596;29;20407;-88
2021/12/30 17:19:37;;;;;;;265.27;242.77;;;;;;;;;;4969114;28;20426;-92
2021/12/30 17:22:06;;;;;;;417.87;287.47;;;;;;;;;;4982087;28;20940;-90
2021/12/30 17:24:33;;;;;;;418.90;307.37;;;;;;;;;;4980896;28;20525;-95
2021/12/30 17:27:03;;;;;;;466.17;297.57;;;;;;;;;;4981015;28;20450;-92
2021/12/30 17:29:31;;;;;;;192.00;179.07;;;;;;;;;;4978722;28;20454;-88
2021/12/30 17:31:58;;;;;;;296.17;265.43;;;;;;;;;;4980138;28;20452;-89
2021/12/30 17:34:27;;;;;;;441.63;301.87;;;;;;;;;;4969388;28;20452;-90
2021/12/30 17:36:55;;;;;;;21.07;19.87;;;;;;;;;;4973519;28;20463;-88
2021/12/30 17:39:22;;;;;;;24.23;22.63;;;;;;;;;;4963937;28;20443;-95
2021/12/30 17:41:50;;;;;;;22.60;21.03;;;;;;;;;;4963381;28;20483;-96
2021/12/30 17:44:18;;;;;;;22.40;21.10;;;;;;;;;;4980785;28;20439;-91
2021/12/30 17:46:46;;;;;;;24.10;22.60;;;;;;;;;;4980603;28;20503;-90
2021/12/30 17:49:13;;;;;;;385.42;239.50;;;;;;;;;;4961506;23;20522;-92
2021/12/30 17:51:41;;;;;;;24.13;22.13;;;;;;;;;;4954430;29;20285;-92
2021/12/30 17:54:09;;;;;;;22.57;21.00;;;;;;;;;;4953845;28;20474;-93
2021/12/30 17:56:36;;;;;;;24.23;22.60;;;;;;;;;;4953677;29;20873;-91
2021/12/30 17:59:04;;;;;;;310.27;276.80;;;;;;;;;;4957816;28;20442;-89
2021/12/30 18:01:33;;;;;;;417.87;291.07;;;;;;;;;;4956230;29;20457;-88
2021/12/30 18:04:01;;;;;;;403.43;270.53;;;;;;;;;;4948255;28;20804;-87
2021/12/30 18:06:28;;;;;;;22.30;21.00;;;;;;;;;;4952211;29;20604;-87
2021/12/30 18:08:55;;;;;;;22.77;21.30;;;;;;;;;;4953704;29;20459;-85
2021/12/30 18:11:23;;;;;;;23.73;22.23;;;;;;;;;;4953227;28;20477;-87
2021/12/30 18:13:51;;;;;;;26.43;24.27;;;;;;;;;;4951985;29;20519;-87
2021/12/30 18:16:18;;;;;;;27.23;25.13;;;;;;;;;;4960629;29;20452;-88
2021/12/30 18:18:47;;;;;;;25.57;24.07;;;;;;;;;;4955563;29;20451;-87
2021/12/30 18:21:14;;;;;;;21.97;20.57;;;;;;;;;;4955193;29;20478;-86
2021/12/30 18:23:42;;;;;;;25.43;23.67;;;;;;;;;;4956175;29;20466;-87
2021/12/30 18:26:10;;;;;;;24.80;23.27;;;;;;;;;;4956992;29;20456;-87
2021/12/30 18:28:37;;;;;;;25.43;23.57;;;;;;;;;;4955679;29;21162;-87
2021/12/30 18:31:05;;;;;;;26.07;23.87;;;;;;;;;;4955869;29;20957;-88
2021/12/30 18:33:33;;;;;;;23.73;22.33;;;;;;;;;;4956703;29;20547;-88
2021/12/30 18:36:02;;;;;;;21.97;20.50;;;;;;;;;;4953403;29;20460;-88
2021/12/30 18:38:31;;;;;;;26.13;24.23;;;;;;;;;;4954956;29;20799;-88
2021/12/30 18:40:58;;;;;;;21.87;20.47;;;;;;;;;;4954906;29;20688;-91
2021/12/30 18:43:26;;;;;;;27.43;25.03;;;;;;;;;;4954204;29;20488;-90
2021/12/30 18:45:53;;;;;;;24.47;22.90;;;;;;;;;;4956182;29;20451;-91
2021/12/30 18:48:21;;;;;;;24.50;22.83;;;;;;;;;;4955232;29;20557;-90
2021/12/30 18:50:51;;;;;;;25.53;23.97;;;;;;;;;;4954489;29;20473;-91
2021/12/30 18:53:21;;;;;;;28.67;23.40;;;;;;;;;;4953444;29;20491;-91
2021/12/30 18:55:50;;;;;;;26.20;24.23;;;;;;;;;;4954326;29;20466;-91
2021/12/30 18:58:18;;;;;;;27.03;25.40;;;;;;;;;;4952786;28;20461;-90
2021/12/30 19:00:47;;;;;;;27.30;25.47;;;;;;;;;;4953119;29;20451;-89
2021/12/30 19:03:14;;;;;;;25.67;23.70;;;;;;;;;;4958006;29;20472;-89
2021/12/30 19:05:49;;;;;;;25.33;23.73;;;;;;;;;;4954158;29;20584;-89
2021/12/30 19:08:17;;;;;;;26.03;24.10;;;;;;;;;;4954068;29;20434;-89
2021/12/30 19:10:46;;;;;;;26.60;24.90;;;;;;;;;;4953996;28;20510;-89
2021/12/30 19:13:15;;;;;;;25.00;23.27;;;;;;;;;;4953456;28;20451;-89
2021/12/30 19:15:45;;;;;;;321.77;290.27;;;;;;;;;;4952646;28;20482;-88
2021/12/30 19:18:13;;;;;;;339.40;283.80;;;;;;;;;;4953239;29;20467;-89
2021/12/30 19:20:42;;;;;;;432.57;277.27;;;;;;;;;;4952270;29;20514;-94
2021/12/30 19:23:10;;;;;;;466.33;251.57;;;;;;;;;;4951322;29;20468;-88
2021/12/30 19:25:37;;;;;;;481.08;301.30;;;;;;;;;;4953686;29;20304;-88
2021/12/30 19:28:07;;;;;;;24.90;23.37;;;;;;;;;;4953369;28;20209;-88
2021/12/30 19:30:35;;;;;;;27.93;26.03;;;;;;;;;;4954500;29;20526;-86
2021/12/30 19:33:03;;;;;;;27.87;25.87;;;;;;;;;;4947477;29;20422;-88
2021/12/30 19:35:31;;;;;;;25.43;23.90;;;;;;;;;;4942387;29;20458;-87
2021/12/30 19:37:59;;;;;;;25.80;23.93;;;;;;;;;;4951714;29;20431;-89
2021/12/30 19:40:27;;;;;;;27.37;25.50;;;;;;;;;;4953128;29;20476;-88
2021/12/30 19:42:55;;;;;;;28.73;26.60;;;;;;;;;;4951497;29;20526;-88
2021/12/30 19:45:26;;;;;;;21.57;20.27;;;;;;;;;;4951039;29;20462;-88
2021/12/30 19:47:53;;;;;;;28.40;26.50;;;;;;;;;;4949940;28;20553;-91
2021/12/30 19:50:20;;;;;;;22.50;20.90;;;;;;;;;;4947902;28;20463;-87
2021/12/30 19:52:48;;;;;;;27.37;25.40;;;;;;;;;;4954707;28;20915;-88
2021/12/30 19:55:17;;;;;;;26.83;24.97;;;;;;;;;;4949330;28;20443;-88
2021/12/30 19:57:44;;;;;;;28.50;26.60;;;;;;;;;;4957941;28;20497;-88
2021/12/30 20:00:13;;;;;;;25.97;24.27;;;;;;;;;;4935431;28;20489;-89
2021/12/30 20:02:42;;;;;;;27.07;25.23;;;;;;;;;;4951893;28;20466;-88